Annapolis, Illinois
Current Conditions -  °F | °C
As of 11:15 PM on Friday 28 Nov 2014 (Local Time) from KRSV Reporting Station
Clear Clear  
Wind Chill: -2°   Ceiling: Unl
Heat Index:   Visibility: 10mi
Dew Point: -3°   Wind: 6mph
Humidity: 79%   Direction: 170°S
Pressure: 30.01"   Gusts: NA
Location:  39.14°N, 87.82°W
Report Text: KRSV 290515Z AUTO 17005KT 10SM CLR 01/M02 A3001 RMK AO2 T00081025
Loading
Personal Weather Stations






























Interactive Weather Map New forecast layout! Learn more

10-Day Weather Forecast

Advertisements
Track Severe Weather on mobile